OAK weather

Metropolitan Oakland International Airport
Oakland, California, United States

Public forecast

Using degrees Fahrenheit for public forecast. Weather courtesy of forecast.io.

METAR (pilot weather report)

Retrieved 2019/03/23 08:53 UTC (2 hours ago):

KOAK 230853Z 15008KT 10SM -RA SCT012 BKN030 OVC060 13/13 A3014 RMK AO2 SLP207 P0004 60010 T01330133 58001 $

TAF (pilot weather forecast)

Retrieved 2019/03/23 06:22 UTC (4 hours ago):

TAF KOAK 230520Z 2306/2412 14007KT 6SM -SHRA BKN020 BKN035 FM230900 26010KT P6SM VCSH SCT020 BKN040 FM231300 24010KT P6SM SCT020 BKN050 BKN100 FM231800 27010KT P6SM FEW020 SCT050 SCT100 FM240300 29005KT P6SM FEW050